createdAt,value
2018-11-01T00:00:56.504Z,99.99
2018-11-01T00:01:56.521Z,99.99
2018-11-01T00:02:56.533Z,99.99
2018-11-01T00:03:56.550Z,99.99
2018-11-01T00:04:56.559Z,99.99
2018-11-01T00:05:56.577Z,99.99
2018-11-01T00:06:56.589Z,99.99
2018-11-01T00:07:56.607Z,99.99
2018-11-01T00:08:56.636Z,99.99
2018-11-01T00:09:56.634Z,99.99
2018-11-01T00:10:56.648Z,99.99
2018-11-01T00:11:56.673Z,99.99
2018-11-01T00:12:56.678Z,99.99
2018-11-01T00:13:56.691Z,99.99
2018-11-01T00:14:56.713Z,99.99
2018-11-01T00:15:56.722Z,99.99
2018-11-01T00:16:56.739Z,99.99
2018-11-01T00:17:56.751Z,99.99
2018-11-01T00:18:56.791Z,99.99
2018-11-01T00:19:56.780Z,99.99
2018-11-01T00:20:56.795Z,99.99
2018-11-01T00:21:56.808Z,99.99
2018-11-01T00:22:56.825Z,99.99
2018-11-01T00:23:56.856Z,99.99
2018-11-01T00:24:56.853Z,99.99
2018-11-01T00:25:56.877Z,99.99
2018-11-01T00:26:56.883Z,99.99
2018-11-01T00:27:56.897Z,99.99
2018-11-01T00:28:56.911Z,99.99
2018-11-01T00:29:56.925Z,99.99
2018-11-01T00:30:56.941Z,99.99
2018-11-01T00:31:56.953Z,99.99
2018-11-01T00:32:56.969Z,99.99
2018-11-01T00:33:56.984Z,99.99
2018-11-01T00:34:57.047Z,99.99
2018-11-01T00:35:57.011Z,99.99
2018-11-01T00:36:57.032Z,99.99
2018-11-01T00:37:57.043Z,99.99
2018-11-01T00:38:57.056Z,99.99
2018-11-01T00:39:57.071Z,99.99
2018-11-01T00:40:57.093Z,99.99
2018-11-01T00:41:57.103Z,99.99
2018-11-01T00:42:57.115Z,99.99
2018-11-01T00:43:57.129Z,99.99
2018-11-01T00:44:57.145Z,99.99
2018-11-01T00:45:57.160Z,99.99
2018-11-01T00:46:57.173Z,99.99
2018-11-01T00:47:57.188Z,99.99
2018-11-01T00:48:57.484Z,99.99
2018-11-01T00:49:57.222Z,99.99
2018-11-01T00:50:57.230Z,99.99
2018-11-01T00:51:57.265Z,99.99
2018-11-01T00:52:57.259Z,99.99
2018-11-01T00:53:57.279Z,99.99
2018-11-01T00:54:57.292Z,99.99
2018-11-01T00:55:57.315Z,99.99
2018-11-01T00:56:57.331Z,99.99
2018-11-01T00:57:57.335Z,99.99
2018-11-01T00:58:57.348Z,99.99
2018-11-01T00:59:57.361Z,99.99
2018-11-01T01:00:57.377Z,99.99
2018-11-01T01:01:57.390Z,99.99
2018-11-01T01:02:57.408Z,99.99
2018-11-01T01:03:57.421Z,99.99
2018-11-01T01:04:57.436Z,99.99
2018-11-01T01:05:57.457Z,99.99
2018-11-01T01:06:57.463Z,99.99
2018-11-01T01:07:57.480Z,99.99
2018-11-01T01:08:57.498Z,99.99
2018-11-01T01:09:57.522Z,99.99
2018-11-01T01:10:57.523Z,99.99
2018-11-01T01:11:57.544Z,99.99
2018-11-01T01:12:57.554Z,99.99
2018-11-01T01:13:57.575Z,99.99
2018-11-01T01:14:57.581Z,99.99
2018-11-01T01:15:57.598Z,99.99
2018-11-01T01:16:57.612Z,99.99
2018-11-01T01:17:57.628Z,99.99
2018-11-01T01:18:57.661Z,99.99
2018-11-01T01:19:57.656Z,99.99
2018-11-01T01:20:57.669Z,99.99
2018-11-01T01:21:57.701Z,99.99
2018-11-01T01:22:57.701Z,99.99
2018-11-01T01:23:57.713Z,99.99
2018-11-01T01:24:57.727Z,99.75
2018-11-01T01:25:57.743Z,99.99
2018-11-01T01:26:57.757Z,99.55
2018-11-01T01:27:57.774Z,99.65
2018-11-01T01:28:57.785Z,99.75
2018-11-01T01:29:57.801Z,99.99
2018-11-01T01:30:57.819Z,99.27
2018-11-01T01:31:57.830Z,99.99
2018-11-01T01:32:57.854Z,99.65
2018-11-01T01:33:57.860Z,99.99
2018-11-01T01:34:57.877Z,99.99
2018-11-01T01:35:57.893Z,99.99
2018-11-01T01:36:57.905Z,99.94
2018-11-01T01:37:57.921Z,99.75
2018-11-01T01:38:57.934Z,99.99
2018-11-01T01:39:57.949Z,99.99
2018-11-01T01:40:57.964Z,99.99
2018-11-01T01:41:57.983Z,99.99
2018-11-01T01:42:57.993Z,99.94
2018-11-01T01:43:58.009Z,99.94
2018-11-01T01:44:58.028Z,99.99
2018-11-01T01:45:58.040Z,99.99
2018-11-01T01:46:58.052Z,99.99
2018-11-01T01:47:58.070Z,99.99
2018-11-01T01:48:58.084Z,99.99
2018-11-01T01:49:58.097Z,99.99
2018-11-01T01:50:58.113Z,99.99
2018-11-01T01:51:58.128Z,99.99
2018-11-01T01:52:58.145Z,99.99
2018-11-01T01:53:58.158Z,99.99
2018-11-01T01:54:58.173Z,99.99
2018-11-01T01:55:58.189Z,99.99
2018-11-01T01:56:58.204Z,99.99
2018-11-01T01:57:58.217Z,99.99
2018-11-01T01:58:58.232Z,99.99
2018-11-01T01:59:58.254Z,99.99
2018-11-01T02:00:58.265Z,99.99
2018-11-01T02:01:58.278Z,99.99
2018-11-01T02:02:58.317Z,99.99
2018-11-01T02:03:58.309Z,99.99
2018-11-01T02:04:58.321Z,99.99
2018-11-01T02:05:58.336Z,99.99
2018-11-01T02:06:58.350Z,99.99
2018-11-01T02:07:58.365Z,99.99
2018-11-01T02:08:58.380Z,99.99
2018-11-01T02:09:58.407Z,99.99
2018-11-01T02:10:58.411Z,99.99
2018-11-01T02:11:58.435Z,99.99
2018-11-01T02:12:58.442Z,99.99
2018-11-01T02:13:58.454Z,99.99
2018-11-01T02:14:58.469Z,99.99
2018-11-01T02:15:58.484Z,99.99
2018-11-01T02:16:58.502Z,99.99
2018-11-01T02:17:58.517Z,99.99
2018-11-01T02:18:58.530Z,99.94
2018-11-01T02:19:58.543Z,99.55
2018-11-01T02:20:58.561Z,99.65
2018-11-01T02:21:58.571Z,99.84
2018-11-01T02:22:58.597Z,98.99
2018-11-01T02:23:58.606Z,99.27
2018-11-01T02:24:58.616Z,98.99
2018-11-01T02:25:58.633Z,99.18
2018-11-01T02:26:58.649Z,99.46
2018-11-01T02:27:58.663Z,99.18
2018-11-01T02:28:58.681Z,99.18
2018-11-01T02:29:58.690Z,98.99
2018-11-01T02:30:58.707Z,99.37
2018-11-01T02:31:58.722Z,99.84
2018-11-01T02:32:58.734Z,99.18
2018-11-01T02:33:58.750Z,98.99
2018-11-01T02:34:58.763Z,98.79
2018-11-01T02:35:58.797Z,99.27
2018-11-01T02:36:58.793Z,98.70
2018-11-01T02:37:58.885Z,98.79
2018-11-01T02:38:58.827Z,98.13
2018-11-01T02:39:58.851Z,98.32
2018-11-01T02:40:58.857Z,98.32
2018-11-01T02:41:58.871Z,97.56
2018-11-01T02:42:58.883Z,97.94
2018-11-01T02:43:58.897Z,97.65
2018-11-01T02:44:58.910Z,97.56
2018-11-01T02:45:58.931Z,98.22
2018-11-01T02:46:58.945Z,98.22
2018-11-01T02:47:58.989Z,97.27
2018-11-01T02:48:58.973Z,98.41
2018-11-01T02:49:58.990Z,98.41
2018-11-01T02:50:59.001Z,98.41
2018-11-01T02:51:59.016Z,98.41
2018-11-01T02:52:59.031Z,98.13
2018-11-01T02:53:59.046Z,98.32
2018-11-01T02:54:59.067Z,99.18
2018-11-01T02:55:59.081Z,99.46
2018-11-01T02:56:59.087Z,98.99
2018-11-01T02:57:59.104Z,98.55
2018-11-01T02:58:59.123Z,98.74
2018-11-01T02:59:59.134Z,99.22
2018-11-01T03:00:59.147Z,99.51
2018-11-01T03:01:59.170Z,99.89
2018-11-01T03:02:59.179Z,99.98
2018-11-01T03:03:59.194Z,99.99
2018-11-01T03:04:59.207Z,99.99
2018-11-01T03:05:59.224Z,99.99
2018-11-01T03:06:59.243Z,99.99
2018-11-01T03:07:59.251Z,99.99
2018-11-01T03:38:11.135Z,99.99
2018-11-01T03:39:11.087Z,99.99
2018-11-01T03:41:03.011Z,99.99
2018-11-01T03:42:03.005Z,99.99
2018-11-01T03:43:03.011Z,99.99
2018-11-01T03:44:03.021Z,99.99
2018-11-01T03:45:03.036Z,99.99
2018-11-01T03:46:03.040Z,99.99
2018-11-01T03:47:03.052Z,99.99
2018-11-01T03:48:03.066Z,99.99
2018-11-01T03:49:03.073Z,99.99
2018-11-01T03:50:03.091Z,99.99
2018-11-01T03:51:03.100Z,99.99
2018-11-01T03:52:03.242Z,99.99
2018-11-01T03:53:03.150Z,99.99
2018-11-01T03:54:03.138Z,99.99
2018-11-01T03:55:03.150Z,99.99
2018-11-01T03:56:03.165Z,99.99
2018-11-01T03:57:03.180Z,99.99
2018-11-01T03:58:03.187Z,99.99
2018-11-01T03:59:03.200Z,99.99
2018-11-01T04:00:03.220Z,99.99
2018-11-01T04:01:03.226Z,99.99
2018-11-01T04:02:03.240Z,99.99
2018-11-01T04:03:03.253Z,99.99
2018-11-01T04:04:03.277Z,99.99
2018-11-01T04:05:03.280Z,99.99
2018-11-01T04:06:03.290Z,99.99
2018-11-01T04:07:03.307Z,99.99
2018-11-01T04:08:03.318Z,99.99
2018-11-01T04:09:03.340Z,99.99
2018-11-01T04:10:03.346Z,99.99
2018-11-01T04:11:03.371Z,99.99
2018-11-01T04:12:03.374Z,99.99
2018-11-01T04:13:03.387Z,99.99
2018-11-01T04:14:03.406Z,99.99
2018-11-01T04:15:03.459Z,99.99
2018-11-01T04:16:03.425Z,99.99
2018-11-01T04:17:03.468Z,99.99
2018-11-01T04:18:03.451Z,99.99
2018-11-01T04:19:03.469Z,99.99
2018-11-01T04:20:03.478Z,99.99
2018-11-01T04:21:03.494Z,99.99
2018-11-01T04:22:03.509Z,99.99
2018-11-01T04:23:03.556Z,99.99
2018-11-01T04:24:03.532Z,99.99
2018-11-01T04:25:03.547Z,99.99
2018-11-01T04:26:03.547Z,99.99
2018-11-01T04:27:03.565Z,99.99
2018-11-01T04:28:03.593Z,99.99
2018-11-01T04:29:03.650Z,99.99
2018-11-01T04:30:03.621Z,99.99
2018-11-01T04:31:03.620Z,99.99
2018-11-01T04:32:03.649Z,99.99
2018-11-01T04:33:03.722Z,99.99
2018-11-01T04:34:03.661Z,99.99
2018-11-01T04:35:03.706Z,99.99
2018-11-01T04:36:03.745Z,99.99
2018-11-01T04:37:03.726Z,99.99
2018-11-01T04:38:03.728Z,99.99
2018-11-01T04:39:03.753Z,99.99
2018-11-01T04:40:03.748Z,99.99
2018-11-01T04:41:03.761Z,99.99
2018-11-01T04:42:03.787Z,99.99
2018-11-01T04:43:03.795Z,99.99
2018-11-01T04:44:03.851Z,99.99
2018-11-01T04:45:03.835Z,99.99
2018-11-01T04:46:03.873Z,99.99
2018-11-01T04:47:03.894Z,99.99
2018-11-01T04:48:03.934Z,99.99
2018-11-01T04:49:03.867Z,99.99
2018-11-01T04:50:03.876Z,99.99
2018-11-01T04:51:03.894Z,99.99
2018-11-01T04:52:03.912Z,99.99
2018-11-01T04:53:03.923Z,99.99
2018-11-01T04:54:03.944Z,99.99
2018-11-01T04:55:03.949Z,99.99
2018-11-01T04:56:03.973Z,99.99
2018-11-01T04:57:03.980Z,99.99
2018-11-01T04:58:03.992Z,99.99
2018-11-01T04:59:04.007Z,99.99
2018-11-01T05:00:04.019Z,99.99
2018-11-01T05:01:04.033Z,99.99
2018-11-01T05:02:04.049Z,99.99
2018-11-01T05:03:04.065Z,99.99
2018-11-01T05:04:04.079Z,99.99
2018-11-01T05:05:04.172Z,99.99
2018-11-01T05:06:04.102Z,99.99
2018-11-01T05:07:04.125Z,99.99
2018-11-01T05:08:04.146Z,99.99
2018-11-01T05:09:04.208Z,99.99
2018-11-01T05:10:04.157Z,99.99
2018-11-01T05:11:04.174Z,99.99
2018-11-01T05:12:04.181Z,99.99
2018-11-01T05:13:04.198Z,99.99
2018-11-01T05:14:04.216Z,99.99
2018-11-01T05:15:04.241Z,99.99
2018-11-01T05:16:04.238Z,99.99
2018-11-01T05:17:04.252Z,99.99
2018-11-01T05:18:04.267Z,99.99
2018-11-01T05:19:04.281Z,99.99
2018-11-01T05:20:04.335Z,99.99
2018-11-01T05:21:04.311Z,99.99
2018-11-01T05:22:04.327Z,99.99
2018-11-01T05:23:04.338Z,99.99
2018-11-01T05:24:04.354Z,99.99
2018-11-01T05:25:04.368Z,99.99
2018-11-01T05:26:04.420Z,99.99
2018-11-01T05:27:04.394Z,99.99
2018-11-01T05:28:04.414Z,99.99
2018-11-01T05:29:04.419Z,99.99
2018-11-01T05:30:04.434Z,99.99
2018-11-01T05:31:04.450Z,99.99
2018-11-01T05:32:04.469Z,99.99
2018-11-01T05:33:04.473Z,99.99
2018-11-01T05:34:04.487Z,99.99
2018-11-01T05:35:04.503Z,99.99
2018-11-01T05:36:04.516Z,99.99
2018-11-01T05:37:04.527Z,99.99
2018-11-01T05:38:04.587Z,99.99
2018-11-01T05:39:04.565Z,99.99
2018-11-01T05:40:04.570Z,99.99
2018-11-01T05:41:04.586Z,99.99
2018-11-01T05:42:04.613Z,99.99
2018-11-01T05:43:04.614Z,99.99
2018-11-01T05:44:04.630Z,99.99
2018-11-01T05:45:04.644Z,99.99
2018-11-01T05:46:04.655Z,99.99
2018-11-01T05:47:04.674Z,99.99
2018-11-01T05:48:04.680Z,99.99
2018-11-01T05:49:04.691Z,99.99
2018-11-01T05:50:04.709Z,99.99
2018-11-01T05:51:04.721Z,99.99
2018-11-01T05:52:04.733Z,99.99
2018-11-01T05:53:04.752Z,99.99
2018-11-01T05:54:04.763Z,99.99
2018-11-01T05:55:04.778Z,99.99
2018-11-01T05:56:04.788Z,99.99
2018-11-01T05:57:04.801Z,99.99
2018-11-01T05:58:04.815Z,99.99
2018-11-01T05:59:04.841Z,99.99
2018-11-01T06:00:04.927Z,99.99
2018-11-01T06:01:04.856Z,99.99
2018-11-01T06:02:04.871Z,99.99
2018-11-01T06:03:04.891Z,99.99
2018-11-01T06:04:04.899Z,99.99
2018-11-01T06:05:04.909Z,99.99
2018-11-01T06:06:04.926Z,99.99
2018-11-01T06:07:04.941Z,99.99
2018-11-01T06:08:04.956Z,99.99
2018-11-01T06:09:04.970Z,99.99
2018-11-01T06:10:05.011Z,99.99
2018-11-01T06:11:04.993Z,99.99
2018-11-01T06:12:05.016Z,99.99
2018-11-01T06:13:05.023Z,99.99
2018-11-01T06:14:05.037Z,99.99
2018-11-01T06:15:05.049Z,99.99
2018-11-01T06:16:05.062Z,99.99
2018-11-01T06:17:05.078Z,99.99
2018-11-01T06:18:05.089Z,99.99
2018-11-01T06:19:05.103Z,99.99
2018-11-01T06:20:05.121Z,99.99
2018-11-01T06:21:05.131Z,99.99
2018-11-01T06:22:05.150Z,99.99
2018-11-01T06:23:05.158Z,99.99
2018-11-01T06:24:05.169Z,99.99
2018-11-01T06:25:05.191Z,99.99
2018-11-01T06:26:05.200Z,99.99
2018-11-01T06:27:05.216Z,99.99
2018-11-01T06:28:05.223Z,99.99
2018-11-01T06:29:05.248Z,99.99
2018-11-01T06:30:05.255Z,99.99
2018-11-01T06:31:05.271Z,99.99
2018-11-01T06:32:05.280Z,99.99
2018-11-01T06:33:05.301Z,99.99
2018-11-01T06:34:05.310Z,99.99
2018-11-01T06:35:05.320Z,99.99
2018-11-01T06:36:05.347Z,99.99
2018-11-01T06:37:05.351Z,99.99
2018-11-01T06:38:05.361Z,99.99
2018-11-01T06:39:05.376Z,99.99
2018-11-01T06:40:05.406Z,99.99
2018-11-01T06:41:05.406Z,99.99
2018-11-01T06:42:05.424Z,99.99
2018-11-01T06:43:05.429Z,99.99
2018-11-01T06:44:05.444Z,99.99
2018-11-01T06:45:05.461Z,99.99
2018-11-01T06:46:05.475Z,99.99
2018-11-01T06:47:05.501Z,99.99
2018-11-01T06:48:05.499Z,99.99
2018-11-01T06:49:05.515Z,99.99
2018-11-01T06:50:05.527Z,99.99
2018-11-01T06:51:05.548Z,99.99
2018-11-01T06:52:05.556Z,99.99
2018-11-01T06:53:05.570Z,99.99
2018-11-01T06:54:05.584Z,99.99
2018-11-01T06:55:05.599Z,99.99
2018-11-01T06:56:05.611Z,99.99
2018-11-01T06:57:05.627Z,99.99
2018-11-01T06:58:05.647Z,99.99
2018-11-01T06:59:05.773Z,99.99
2018-11-01T07:00:05.671Z,99.99
2018-11-01T07:01:05.682Z,99.99
2018-11-01T07:02:05.703Z,99.99
2018-11-01T07:03:05.716Z,99.99
2018-11-01T07:04:05.724Z,99.99
2018-11-01T07:05:05.744Z,99.99
2018-11-01T07:06:05.751Z,99.99
2018-11-01T07:07:05.765Z,99.99
2018-11-01T07:08:05.776Z,99.99
2018-11-01T07:09:05.789Z,99.99
2018-11-01T07:10:05.806Z,99.99
2018-11-01T07:11:05.821Z,99.99
2018-11-01T07:12:05.835Z,99.99
2018-11-01T07:13:05.851Z,99.99
2018-11-01T07:14:05.872Z,99.99
2018-11-01T07:15:05.876Z,99.99
2018-11-01T07:16:05.893Z,99.99
2018-11-01T07:17:05.953Z,99.99
2018-11-01T07:18:05.920Z,99.99
2018-11-01T07:19:05.944Z,99.99
2018-11-01T07:20:05.947Z,99.99
2018-11-01T07:21:05.964Z,99.99
2018-11-01T07:22:05.976Z,99.99
2018-11-01T07:23:05.992Z,99.99
2018-11-01T07:24:06.003Z,99.99
2018-11-01T07:25:06.037Z,99.99
2018-11-01T07:26:06.135Z,99.99
2018-11-01T07:27:06.055Z,99.99
2018-11-01T07:28:06.061Z,99.99
2018-11-01T07:29:06.074Z,99.99
2018-11-01T07:30:06.090Z,99.99
2018-11-01T07:31:06.101Z,99.99
2018-11-01T07:32:06.120Z,99.99
2018-11-01T07:33:06.136Z,99.99
2018-11-01T07:34:06.144Z,99.99
2018-11-01T07:35:06.162Z,99.99
2018-11-01T07:36:06.176Z,99.99
2018-11-01T07:37:06.189Z,99.99
2018-11-01T07:38:06.200Z,99.99
2018-11-01T07:39:06.225Z,99.99
2018-11-01T07:40:06.340Z,99.99
2018-11-01T07:41:06.247Z,99.99
2018-11-01T07:42:06.259Z,99.99
2018-11-01T07:43:06.286Z,99.99
2018-11-01T07:44:06.289Z,99.99
2018-11-01T07:45:06.305Z,99.99
2018-11-01T07:46:06.318Z,99.99
2018-11-01T07:47:06.332Z,99.99
2018-11-01T07:48:06.343Z,99.99
2018-11-01T07:49:06.362Z,99.99
2018-11-01T07:50:06.378Z,99.99
2018-11-01T07:51:06.397Z,99.99
2018-11-01T07:52:06.402Z,99.99
2018-11-01T07:53:06.424Z,99.99
2018-11-01T07:54:06.442Z,99.99
2018-11-01T07:55:06.449Z,99.99
2018-11-01T07:56:06.463Z,99.99
2018-11-01T07:57:06.479Z,99.99
2018-11-01T07:58:06.491Z,99.99
2018-11-01T07:59:06.506Z,99.99
2018-11-01T08:00:06.523Z,99.99
2018-11-01T08:01:06.533Z,99.99
2018-11-01T08:02:06.547Z,99.75
2018-11-01T08:03:06.564Z,99.37
2018-11-01T08:04:06.576Z,99.75
2018-11-01T08:05:06.594Z,99.99
2018-11-01T08:06:06.623Z,99.99
2018-11-01T08:07:06.628Z,99.94
2018-11-01T08:08:06.637Z,99.99
2018-11-01T08:09:06.653Z,99.99
2018-11-01T08:10:06.672Z,99.99
2018-11-01T08:11:06.684Z,99.99
2018-11-01T08:12:06.694Z,99.99
2018-11-01T08:13:06.710Z,99.94
2018-11-01T08:14:06.729Z,99.99
2018-11-01T08:15:06.742Z,99.65
2018-11-01T08:16:06.756Z,99.65
2018-11-01T08:17:06.771Z,99.94
2018-11-01T08:18:06.789Z,99.99
2018-11-01T08:19:06.806Z,99.55
2018-11-01T08:20:06.976Z,99.37
2018-11-01T08:21:06.961Z,99.08
2018-11-01T08:22:06.846Z,98.99
2018-11-01T08:23:06.866Z,99.22
2018-11-01T08:24:06.875Z,98.32
2018-11-01T08:25:06.888Z,98.51
2018-11-01T08:26:06.909Z,98.70
2018-11-01T08:27:06.919Z,99.18
2018-11-01T08:28:07.025Z,99.84
2018-11-01T08:29:06.950Z,99.41
2018-11-01T08:30:06.966Z,99.04
2018-11-01T08:31:06.986Z,99.18
2018-11-01T08:32:07.003Z,99.22
2018-11-01T08:33:07.014Z,98.94
2018-11-01T08:34:07.029Z,98.32
2018-11-01T08:35:07.042Z,98.85
2018-11-01T08:36:07.058Z,99.22
2018-11-01T08:37:07.072Z,99.04
2018-11-01T08:38:07.090Z,98.85
2018-11-01T08:39:07.151Z,97.99
2018-11-01T08:40:07.116Z,98.08
2018-11-01T08:41:07.133Z,98.46
2018-11-01T08:42:07.152Z,98.27
2018-11-01T08:43:07.166Z,97.99
2018-11-01T08:44:07.187Z,98.18
2018-11-01T08:45:07.197Z,99.22
2018-11-01T08:46:07.210Z,98.27
2018-11-01T08:47:07.226Z,98.36
2018-11-01T08:48:07.247Z,98.46
2018-11-01T08:49:07.276Z,97.89
2018-11-01T08:50:07.294Z,97.99
2018-11-01T08:51:07.290Z,98.85
2018-11-01T08:52:07.304Z,99.13
2018-11-01T08:53:07.320Z,98.94
2018-11-01T08:54:07.337Z,98.65
2018-11-01T08:55:07.352Z,98.94
2018-11-01T08:56:07.364Z,99.70
2018-11-01T08:57:07.384Z,99.04
2018-11-01T08:58:07.401Z,99.51
2018-11-01T08:59:07.412Z,99.13
2018-11-01T09:00:07.431Z,99.41
2018-11-01T09:01:07.463Z,98.85
2018-11-01T09:02:07.458Z,99.13
2018-11-01T09:03:07.478Z,99.51
2018-11-01T09:04:07.543Z,99.04
2018-11-01T09:05:07.503Z,99.55
2018-11-01T09:06:07.527Z,99.37
2018-11-01T09:07:07.536Z,98.85
2018-11-01T09:08:07.733Z,99.70
2018-11-01T09:09:07.567Z,99.99
2018-11-01T09:10:07.585Z,99.99
2018-11-01T09:11:07.599Z,99.41
2018-11-01T09:12:07.613Z,99.13
2018-11-01T09:13:07.689Z,98.18
2018-11-01T09:14:07.645Z,97.61
2018-11-01T09:15:07.664Z,97.41
2018-11-01T09:16:07.672Z,97.89
2018-11-01T09:17:07.691Z,98.36
2018-11-01T09:18:07.709Z,98.56
2018-11-01T09:19:07.771Z,97.99
2018-11-01T09:20:07.738Z,98.08
2018-11-01T09:21:07.752Z,97.61
2018-11-01T09:22:07.774Z,97.70
2018-11-01T09:23:07.789Z,98.08
2018-11-01T09:24:07.804Z,98.46
2018-11-01T09:25:07.814Z,98.18
2018-11-01T09:26:07.830Z,97.41
2018-11-01T09:27:07.894Z,97.89
2018-11-01T09:28:07.859Z,97.75
2018-11-01T09:29:07.882Z,97.51
2018-11-01T09:30:07.892Z,98.27
2018-11-01T09:31:07.909Z,98.08
2018-11-01T09:32:07.924Z,97.85
2018-11-01T09:33:07.940Z,97.13
2018-11-01T09:34:07.961Z,97.32
2018-11-01T09:35:07.973Z,96.94
2018-11-01T09:36:07.992Z,96.51
2018-11-01T09:37:08.006Z,96.51
2018-11-01T09:38:08.016Z,95.65
2018-11-01T09:39:08.035Z,95.27
2018-11-01T09:40:08.047Z,95.17
2018-11-01T09:41:08.062Z,95.17
2018-11-01T09:42:08.087Z,94.98
2018-11-01T09:43:08.093Z,95.08
2018-11-01T09:44:08.110Z,94.89
2018-11-01T09:45:08.126Z,94.89
2018-11-01T09:46:08.313Z,94.70
2018-11-01T09:47:08.365Z,94.98
2018-11-01T09:48:08.177Z,95.75
2018-11-01T09:49:08.187Z,95.75
2018-11-01T09:50:08.216Z,94.79
2018-11-01T09:51:08.222Z,95.08
2018-11-01T09:52:08.232Z,94.79
2018-11-01T09:53:08.251Z,94.89
2018-11-01T09:54:08.269Z,94.98
2018-11-01T09:55:08.281Z,94.89
2018-11-01T09:56:08.420Z,94.60
2018-11-01T09:57:08.314Z,94.89
2018-11-01T09:58:08.328Z,94.79
2018-11-01T09:59:08.351Z,94.12
2018-11-01T10:00:08.361Z,93.93
2018-11-01T10:01:08.460Z,94.60
2018-11-01T10:02:08.392Z,94.89
2018-11-01T10:03:08.409Z,94.70
2018-11-01T10:04:08.420Z,94.70
2018-11-01T10:05:08.440Z,94.79
2018-11-01T10:06:08.530Z,95.08
2018-11-01T10:07:08.573Z,94.60
2018-11-01T10:08:08.522Z,95.17
2018-11-01T10:09:08.509Z,95.17
2018-11-01T10:10:08.545Z,94.89
2018-11-01T10:11:08.537Z,95.65
2018-11-01T10:12:08.558Z,95.84
2018-11-01T10:13:08.574Z,94.89
2018-11-01T10:14:08.589Z,94.89
2018-11-01T10:15:08.684Z,96.13
2018-11-01T10:16:08.807Z,96.51
2018-11-01T10:17:08.932Z,96.61
2018-11-01T10:18:09.099Z,96.61
2018-11-01T10:19:08.661Z,96.70
2018-11-01T10:20:08.699Z,96.89
2018-11-01T10:21:08.711Z,96.70
2018-11-01T10:22:08.830Z,96.61
2018-11-01T10:23:08.782Z,96.13
2018-11-01T10:24:08.738Z,95.84
2018-11-01T10:25:08.772Z,95.75
2018-11-01T10:26:08.772Z,94.98
2018-11-01T10:27:08.797Z,96.32
2018-11-01T10:28:08.803Z,95.94
2018-11-01T10:29:08.818Z,95.56
2018-11-01T10:30:08.841Z,95.94
2018-11-01T10:31:08.859Z,96.70
2018-11-01T10:32:08.866Z,96.41
2018-11-01T10:33:08.884Z,96.32
2018-11-01T10:34:08.904Z,96.51
2018-11-01T10:35:08.940Z,95.94
2018-11-01T10:36:08.932Z,96.03
2018-11-01T10:37:08.946Z,95.79
2018-11-01T10:38:08.963Z,95.12
2018-11-01T10:39:08.984Z,95.61
2018-11-01T10:40:08.995Z,95.32
2018-11-01T10:41:09.011Z,95.32
2018-11-01T10:42:09.043Z,95.79
2018-11-01T10:43:09.045Z,95.22
2018-11-01T10:44:09.061Z,95.89
2018-11-01T10:45:09.075Z,94.65
2018-11-01T10:46:09.114Z,95.12
2018-11-01T10:47:09.112Z,95.03
2018-11-01T10:48:09.123Z,95.22
2018-11-01T10:49:09.137Z,94.93
2018-11-01T10:50:09.155Z,94.65
2018-11-01T10:51:09.171Z,94.84
2018-11-01T10:52:09.184Z,94.65
2018-11-01T10:53:09.203Z,94.27
2018-11-01T10:54:09.265Z,94.65
2018-11-01T10:55:09.238Z,94.65
2018-11-01T10:56:09.251Z,94.46
2018-11-01T10:57:09.275Z,94.46
2018-11-01T10:58:09.283Z,94.74
2018-11-01T10:59:09.300Z,94.84
2018-11-01T11:00:09.454Z,95.03
2018-11-01T11:01:09.479Z,94.74
2018-11-01T11:02:09.348Z,94.27
2018-11-01T11:03:09.368Z,94.27
2018-11-01T11:04:09.381Z,93.88
2018-11-01T11:05:09.405Z,93.88
2018-11-01T11:06:09.413Z,93.98
2018-11-01T11:07:09.427Z,94.07
2018-11-01T11:08:09.440Z,94.17
2018-11-01T11:09:09.463Z,94.27
2018-11-01T11:10:09.476Z,93.70
2018-11-01T11:11:09.495Z,93.88
2018-11-01T11:12:09.510Z,93.46
2018-11-01T11:13:09.525Z,93.17
2018-11-01T11:14:09.542Z,94.31
2018-11-01T11:15:09.559Z,94.03
2018-11-01T11:16:09.574Z,93.46
2018-11-01T11:17:09.590Z,92.79
2018-11-01T11:18:09.604Z,92.60
2018-11-01T11:19:09.622Z,91.83
2018-11-01T11:20:09.701Z,92.12
2018-11-01T11:21:09.920Z,92.88
2018-11-01T11:22:09.674Z,92.12
2018-11-01T11:23:09.687Z,92.12
2018-11-01T11:24:09.700Z,92.88
2018-11-01T11:25:09.722Z,92.79
2018-11-01T11:26:09.737Z,92.97
2018-11-01T11:27:09.764Z,93.17
2018-11-01T11:28:09.770Z,93.55
2018-11-01T11:29:09.783Z,93.36
2018-11-01T11:30:09.917Z,93.84
2018-11-01T11:31:09.817Z,94.12
2018-11-01T11:32:09.835Z,94.22
2018-11-01T11:33:09.860Z,93.65
2018-11-01T11:34:09.867Z,93.55
2018-11-01T11:35:09.888Z,93.65
2018-11-01T11:36:09.903Z,93.65
2018-11-01T11:37:09.919Z,93.74
2018-11-01T11:38:09.934Z,94.12
2018-11-01T11:39:09.992Z,94.03
2018-11-01T11:40:09.973Z,93.17
2018-11-01T11:41:09.989Z,93.41
2018-11-01T11:42:10.000Z,93.41
2018-11-01T11:43:10.018Z,93.55
2018-11-01T11:44:10.032Z,93.36
2018-11-01T11:45:10.050Z,93.88
2018-11-01T11:46:10.081Z,94.12
2018-11-01T11:47:10.083Z,94.60
2018-11-01T11:48:10.100Z,94.12
2018-11-01T11:49:10.115Z,93.36
2018-11-01T11:50:10.132Z,93.74
2018-11-01T11:51:10.184Z,93.74
2018-11-01T11:52:10.165Z,93.98
2018-11-01T11:53:10.185Z,94.46
2018-11-01T11:54:10.200Z,94.74
2018-11-01T11:55:10.215Z,93.88
2018-11-01T11:56:10.232Z,94.46
2018-11-01T11:57:10.282Z,94.65
2018-11-01T11:58:10.265Z,95.12
2018-11-01T11:59:10.282Z,94.93
2018-11-01T12:00:10.295Z,94.36
2018-11-01T12:01:10.314Z,94.27
2018-11-01T12:02:10.380Z,94.93
2018-11-01T12:03:10.356Z,94.84
2018-11-01T12:04:10.363Z,94.56
2018-11-01T12:05:10.412Z,94.74
2018-11-01T12:06:10.569Z,94.74
2018-11-01T12:07:10.414Z,95.22
2018-11-01T12:08:10.430Z,95.12
2018-11-01T12:09:10.444Z,95.03
2018-11-01T12:10:10.469Z,94.84
2018-11-01T12:11:10.482Z,95.61
2018-11-01T12:12:10.495Z,95.70
2018-11-01T12:13:10.510Z,95.89
2018-11-01T12:14:10.591Z,95.98
2018-11-01T12:15:10.547Z,95.89
2018-11-01T12:16:10.561Z,95.89
2018-11-01T12:17:10.576Z,95.12
2018-11-01T12:18:10.597Z,95.70
2018-11-01T12:19:10.612Z,95.79
2018-11-01T12:20:10.626Z,96.66
2018-11-01T12:21:10.640Z,96.56
2018-11-01T12:22:10.671Z,96.46
2018-11-01T12:23:10.684Z,95.89
2018-11-01T12:24:10.692Z,95.79
2018-11-01T12:25:10.716Z,95.03
2018-11-01T12:26:10.722Z,95.79
2018-11-01T12:27:10.743Z,95.79
2018-11-01T12:28:10.789Z,95.84
2018-11-01T12:29:10.768Z,95.94
2018-11-01T12:30:10.789Z,95.79
2018-11-01T12:31:10.805Z,96.03
2018-11-01T12:32:10.820Z,95.56
2018-11-01T12:33:10.839Z,95.84
2018-11-01T12:34:10.855Z,94.79
2018-11-01T12:35:10.914Z,96.03
2018-11-01T12:36:11.017Z,95.94
2018-11-01T12:37:10.903Z,94.89
2018-11-01T12:38:10.920Z,95.36
2018-11-01T12:39:10.936Z,95.17
2018-11-01T12:40:10.954Z,95.27
2018-11-01T12:41:10.968Z,94.98
2018-11-01T12:42:10.987Z,94.79
2018-11-01T12:43:10.998Z,95.08
2018-11-01T12:44:11.019Z,94.98
2018-11-01T12:45:11.037Z,94.98
2018-11-01T12:46:11.052Z,94.51
2018-11-01T12:47:11.075Z,94.89
2018-11-01T12:48:11.083Z,95.08
2018-11-01T12:49:11.101Z,95.36
2018-11-01T12:50:11.295Z,95.17
2018-11-01T12:51:11.132Z,95.27
2018-11-01T12:52:11.152Z,94.70
2018-11-01T12:53:11.168Z,95.94
2018-11-01T12:54:11.183Z,96.13
2018-11-01T12:55:11.204Z,96.22
2018-11-01T12:56:11.246Z,95.84
2018-11-01T12:57:11.232Z,95.84
2018-11-01T12:58:11.250Z,95.94
2018-11-01T12:59:11.266Z,94.98
2018-11-01T13:00:11.281Z,95.75
2018-11-01T13:01:11.311Z,96.13
2018-11-01T13:02:11.318Z,95.84
2018-11-01T13:03:11.361Z,95.08
2018-11-01T13:04:11.358Z,95.79
2018-11-01T13:05:11.387Z,95.03
2018-11-01T13:06:11.397Z,95.03
2018-11-01T13:07:11.406Z,96.08
2018-11-01T13:08:11.416Z,94.93
2018-11-01T13:09:11.429Z,94.84
2018-11-01T13:10:11.449Z,94.84
2018-11-01T13:11:11.465Z,95.41
2018-11-01T13:12:11.482Z,94.74
2018-11-01T13:13:11.499Z,94.70
2018-11-01T13:14:11.520Z,94.93
2018-11-01T13:15:11.538Z,94.84
2018-11-01T13:16:11.549Z,94.70
2018-11-01T13:17:11.567Z,94.98
2018-11-01T13:18:11.822Z,94.79
2018-11-01T13:19:11.597Z,94.89
2018-11-01T13:20:11.661Z,94.70
2018-11-01T13:21:11.629Z,94.89
2018-11-01T13:22:11.652Z,94.98
2018-11-01T13:23:11.665Z,95.17